Time;durP1;ratioP1;P1;durP2;ratioP2;P2;SDS_P1;SDS_P2;PMS_P1;PMS_P2;Temp;Humidity;BMP_temperature;BMP_pressure;BME280_temperature;BME280_humidity;BME280_pressure;Samples;Min_cycle;Max_cycle;Signal;HPM_P1;HPM_P2
2021/09/26 00:01:50;;;;;;;6.18;4.90;;;14.10;99.90;;;;;;5032916;28;20112;-93
2021/09/26 00:04:15;;;;;;;10.10;5.47;;;14.10;99.90;;;;;;5032914;28;20053;-92
2021/09/26 00:06:41;;;;;;;7.35;4.47;;;14.00;99.90;;;;;;5032935;28;20602;-92
2021/09/26 00:09:07;;;;;;;9.75;5.50;;;14.00;99.90;;;;;;5040893;28;20438;-93
2021/09/26 00:11:33;;;;;;;6.43;4.82;;;13.90;99.90;;;;;;5040768;28;20032;-93
2021/09/26 00:13:58;;;;;;;7.43;5.10;;;13.90;99.90;;;;;;5039368;28;20029;-94
2021/09/26 00:16:24;;;;;;;9.30;4.82;;;13.80;99.90;;;;;;5038227;28;20018;-93
2021/09/26 00:18:50;;;;;;;7.13;5.15;;;13.80;99.90;;;;;;5036647;28;20057;-93
2021/09/26 00:21:16;;;;;;;9.32;4.90;;;13.70;99.90;;;;;;5032753;28;20463;-93
2021/09/26 00:23:42;;;;;;;9.35;5.20;;;13.70;99.90;;;;;;5032793;28;20594;-92
2021/09/26 00:26:09;;;;;;;8.60;5.22;;;13.60;99.90;;;;;;5033239;28;20018;-93
2021/09/26 00:28:36;;;;;;;9.40;5.47;;;13.60;99.90;;;;;;5033126;28;20124;-95
2021/09/26 00:31:03;;;;;;;9.13;5.00;;;13.60;99.90;;;;;;5032871;28;20029;-93
2021/09/26 00:33:29;;;;;;;9.05;5.10;;;13.50;99.90;;;;;;5032855;28;20026;-93
2021/09/26 00:35:55;;;;;;;6.32;4.80;;;13.50;99.90;;;;;;5032898;28;20033;-95
2021/09/26 00:38:21;;;;;;;7.78;4.95;;;13.40;99.90;;;;;;5032705;28;20479;-93
2021/09/26 00:40:50;;;;;;;9.32;4.90;;;13.40;99.90;;;;;;5032789;28;20548;-93
2021/09/26 00:43:16;;;;;;;8.00;4.25;;;13.40;99.90;;;;;;5032858;28;20364;-93
2021/09/26 00:45:42;;;;;;;9.70;6.45;;;13.30;99.90;;;;;;5032214;28;20036;-95
2021/09/26 00:48:08;;;;;;;7.97;4.40;;;13.30;99.90;;;;;;5032329;28;20017;-92
2021/09/26 00:50:35;;;;;;;6.65;5.03;;;13.30;99.90;;;;;;5034540;28;20121;-94
2021/09/26 00:53:00;;;;;;;9.10;5.13;;;13.30;99.90;;;;;;5035976;28;20025;-93
2021/09/26 00:55:26;;;;;;;7.85;5.22;;;13.30;99.90;;;;;;5036160;28;20120;-93
2021/09/26 00:57:52;;;;;;;10.38;4.85;;;13.20;99.90;;;;;;5036017;28;20037;-93
2021/09/26 01:00:20;;;;;;;7.40;5.22;;;13.20;99.90;;;;;;5035785;28;20025;-93
2021/09/26 01:02:46;;;;;;;6.53;4.78;;;13.20;99.90;;;;;;5035687;28;20035;-92
2021/09/26 01:05:13;;;;;;;10.00;5.50;;;13.20;99.90;;;;;;5036074;28;20048;-93
2021/09/26 01:08:10;;;;;;;8.02;5.10;;;13.20;99.90;;;;;;5035750;28;20028;-92
2021/09/26 01:10:42;;;;;;;9.65;5.53;;;13.20;99.90;;;;;;5036009;28;20025;-93
2021/09/26 01:13:35;;;;;;;7.32;5.28;;;13.20;99.90;;;;;;5035796;28;20065;-92
2021/09/26 01:16:33;;;;;;;10.18;5.60;;;13.20;99.90;;;;;;5033985;28;20021;-93
2021/09/26 01:19:17;;;;;;;10.25;6.93;;;13.20;99.90;;;;;;5035730;28;20021;-92
2021/09/26 01:21:58;;;;;;;8.57;5.85;;;13.20;99.90;;;;;;5035546;28;20029;-93
2021/09/26 01:24:46;;;;;;;10.60;6.55;;;13.20;99.90;;;;;;5035467;28;20040;-93
2021/09/26 01:27:22;;;;;;;10.38;6.18;;;13.30;99.90;;;;;;5035427;28;20104;-92
2021/09/26 01:30:19;;;;;;;11.20;6.13;;;13.30;99.90;;;;;;5035636;28;20116;-93
2021/09/26 01:32:56;;;;;;;8.60;6.05;;;13.30;99.90;;;;;;5035663;28;20578;-93
2021/09/26 01:35:24;;;;;;;10.68;5.95;;;13.30;99.90;;;;;;5035736;28;20771;-92
2021/09/26 01:38:24;;;;;;;10.18;6.25;;;13.30;99.90;;;;;;5035467;28;20124;-91
2021/09/26 01:41:00;;;;;;;8.05;5.75;;;13.30;99.90;;;;;;5035160;28;20026;-91
2021/09/26 01:43:34;;;;;;;10.35;6.47;;;13.30;99.90;;;;;;5034815;28;20068;-92
2021/09/26 01:46:04;;;;;;;10.00;6.15;;;13.30;99.90;;;;;;5035513;28;20108;-91
2021/09/26 01:48:50;;;;;;;9.98;6.07;;;13.30;99.90;;;;;;5034869;28;20116;-91
2021/09/26 01:51:16;;;;;;;10.23;5.88;;;13.40;99.90;;;;;;5035129;28;20030;-91
2021/09/26 01:53:44;;;;;;;10.38;6.55;;;13.40;99.90;;;;;;5034917;28;20041;-91
2021/09/26 01:56:15;;;;;;;8.98;5.80;;;13.40;99.90;;;;;;5034873;28;20096;-92
2021/09/26 01:58:42;;;;;;;;;;;13.40;99.90;;;;;;5035564;28;20036;-92
2021/09/26 02:01:09;;;;;;;8.95;6.07;;;13.50;99.90;;;;;;5035141;28;19979;-91
2021/09/26 02:03:35;;;;;;;13.15;6.50;;;13.50;99.90;;;;;;5034982;28;20140;-92
2021/09/26 02:06:02;;;;;;;15.25;8.18;;;13.50;99.90;;;;;;5034959;28;20033;-92
2021/09/26 02:08:31;;;;;;;11.95;6.43;;;13.50;99.90;;;;;;5035060;28;20563;-93
2021/09/26 02:10:57;;;;;;;11.98;7.28;;;13.50;99.90;;;;;;5034542;28;20530;-93
2021/09/26 02:13:24;;;;;;;13.70;7.40;;;13.50;99.90;;;;;;5034923;28;20041;-92
2021/09/26 02:15:51;;;;;;;14.07;7.20;;;13.60;99.90;;;;;;5034873;28;20026;-92
2021/09/26 02:18:18;;;;;;;10.88;6.80;;;13.60;99.90;;;;;;5034347;28;20025;-93
2021/09/26 02:20:45;;;;;;;16.52;7.13;;;13.60;99.90;;;;;;5034415;28;20395;-93
2021/09/26 02:23:11;;;;;;;11.20;7.38;;;13.60;99.90;;;;;;5034298;28;20037;-91
2021/09/26 02:25:42;;;;;;;11.48;7.38;;;13.70;99.90;;;;;;5034666;28;20435;-91
2021/09/26 02:28:08;;;;;;;10.77;7.05;;;13.70;99.90;;;;;;5034071;28;20025;-92
2021/09/26 02:30:34;;;;;;;14.52;7.55;;;13.70;99.90;;;;;;5034178;28;20026;-92
2021/09/26 02:33:00;;;;;;;11.70;6.55;;;13.70;99.90;;;;;;5034407;28;20032;-92
2021/09/26 02:35:26;;;;;;;12.38;7.05;;;13.80;99.90;;;;;;5034234;28;20394;-92
2021/09/26 02:37:52;;;;;;;13.18;7.88;;;13.80;99.90;;;;;;5034312;28;20126;-92
2021/09/26 02:40:21;;;;;;;16.15;8.02;;;13.80;99.90;;;;;;5034065;28;20024;-92
2021/09/26 02:42:58;;;;;;;13.23;7.65;;;13.80;99.90;;;;;;5034156;28;20037;-92
2021/09/26 02:45:42;;;;;;;13.07;7.60;;;13.80;99.90;;;;;;5033722;28;20036;-91
2021/09/26 02:48:15;;;;;;;13.35;7.70;;;13.80;99.90;;;;;;5033995;28;20062;-92
2021/09/26 02:50:42;;;;;;;11.02;7.35;;;13.80;99.90;;;;;;5034147;28;20036;-92
2021/09/26 02:53:09;;;;;;;12.40;7.85;;;13.90;99.90;;;;;;5033666;28;20033;-92
2021/09/26 02:55:37;;;;;;;13.85;8.80;;;13.90;99.90;;;;;;5033858;28;20526;-91
2021/09/26 02:58:03;;;;;;;16.10;8.02;;;14.00;99.90;;;;;;5033907;28;20061;-91
2021/09/26 03:00:35;;;;;;;15.00;8.65;;;13.90;99.90;;;;;;5033474;28;20049;-91
2021/09/26 03:03:08;;;;;;;13.30;7.60;;;14.00;99.90;;;;;;5033752;28;20517;-93
2021/09/26 03:05:34;;;;;;;12.70;7.78;;;14.00;99.90;;;;;;5033754;28;20037;-92
2021/09/26 03:08:00;;;;;;;13.90;8.05;;;14.00;99.90;;;;;;5033315;28;20117;-92
2021/09/26 03:10:26;;;;;;;14.95;8.18;;;14.00;99.90;;;;;;5032548;28;20048;-92
2021/09/26 03:12:51;;;;;;;15.68;8.02;;;14.10;99.90;;;;;;5032359;28;20479;-93
2021/09/26 03:15:17;;;;;;;12.20;6.80;;;14.10;99.90;;;;;;5032958;28;20033;-92
2021/09/26 03:17:43;;;;;;;20.77;10.93;;;14.20;99.90;;;;;;5031072;28;20085;-93
2021/09/26 03:20:09;;;;;;;21.20;10.48;;;14.20;99.90;;;;;;5032873;28;20041;-91
2021/09/26 03:22:34;;;;;;;20.55;11.35;;;14.30;99.90;;;;;;5032205;28;20025;-93
2021/09/26 03:25:00;;;;;;;22.30;11.25;;;14.30;99.90;;;;;;5032060;28;20180;-93
2021/09/26 03:27:28;;;;;;;17.38;10.52;;;14.40;99.90;;;;;;5032710;28;20025;-91
2021/09/26 03:29:53;;;;;;;24.02;13.45;;;14.50;99.90;;;;;;5032472;28;20127;-92
2021/09/26 03:32:19;;;;;;;26.40;15.98;;;14.50;99.90;;;;;;5032549;28;20053;-91
2021/09/26 03:34:45;;;;;;;24.67;14.05;;;14.60;99.90;;;;;;5032586;28;20022;-91
2021/09/26 03:37:10;;;;;;;18.63;10.90;;;14.60;99.90;;;;;;5032044;28;20534;-93
2021/09/26 03:39:37;;;;;;;26.92;16.77;;;14.70;99.90;;;;;;5032604;28;20084;-92
2021/09/26 03:42:03;;;;;;;28.15;16.85;;;14.70;99.90;;;;;;5032931;28;20043;-91
2021/09/26 03:44:28;;;;;;;31.00;17.20;;;14.70;99.90;;;;;;5031908;28;20445;-92
2021/09/26 03:46:54;;;;;;;21.00;11.93;;;14.80;99.90;;;;;;5032599;28;20030;-92
2021/09/26 03:49:20;;;;;;;18.83;11.15;;;14.80;99.90;;;;;;5038680;28;20080;-92
2021/09/26 03:51:48;;;;;;;17.40;11.57;;;14.80;99.90;;;;;;5040695;28;20025;-92
2021/09/26 03:54:15;;;;;;;19.75;12.32;;;14.80;99.90;;;;;;5039075;28;20025;-92
2021/09/26 03:56:41;;;;;;;16.05;9.95;;;14.80;99.90;;;;;;5036934;28;20022;-92
2021/09/26 03:59:06;;;;;;;18.02;10.32;;;14.80;99.90;;;;;;5035712;28;20079;-91
2021/09/26 04:01:32;;;;;;;27.17;16.00;;;14.80;99.90;;;;;;5033665;28;20029;-91
2021/09/26 04:03:58;;;;;;;27.70;15.90;;;14.80;99.90;;;;;;5033263;28;20064;-93
2021/09/26 04:06:24;;;;;;;28.13;16.63;;;14.90;99.90;;;;;;5032595;28;20168;-93
2021/09/26 04:08:49;;;;;;;27.65;16.13;;;14.90;99.90;;;;;;5031910;28;20025;-93
2021/09/26 04:11:15;;;;;;;23.45;13.63;;;15.00;99.90;;;;;;5032419;28;20026;-92
2021/09/26 04:13:41;;;;;;;26.92;15.18;;;15.00;99.90;;;;;;5032336;28;20025;-93
2021/09/26 04:16:07;;;;;;;21.63;13.00;;;15.00;99.90;;;;;;5032241;28;20037;-93
2021/09/26 04:18:32;;;;;;;21.40;13.20;;;15.00;99.90;;;;;;5032315;28;20041;-93
2021/09/26 04:20:58;;;;;;;22.42;13.52;;;15.00;99.90;;;;;;5031867;28;20018;-92
2021/09/26 04:23:24;;;;;;;24.08;13.85;;;15.00;99.90;;;;;;5032138;28;20041;-93
2021/09/26 04:25:49;;;;;;;21.77;12.90;;;14.90;99.90;;;;;;5034628;28;20025;-93
2021/09/26 04:28:15;;;;;;;17.88;12.02;;;15.00;99.90;;;;;;5036058;28;20033;-91
2021/09/26 04:30:41;;;;;;;22.17;13.13;;;14.90;99.90;;;;;;5036290;28;20021;-92
2021/09/26 04:33:06;;;;;;;23.42;13.15;;;14.90;99.90;;;;;;5036944;28;20367;-93
2021/09/26 04:35:32;;;;;;;22.88;12.52;;;14.90;99.90;;;;;;5036887;28;20037;-92
2021/09/26 04:37:58;;;;;;;24.63;13.98;;;14.90;99.90;;;;;;5036312;28;20479;-94
2021/09/26 04:40:25;;;;;;;13.80;8.98;;;15.00;99.90;;;;;;5036459;28;20120;-92
2021/09/26 04:42:51;;;;;;;28.83;15.88;;;15.00;99.90;;;;;;5036355;28;20022;-92
2021/09/26 04:45:17;;;;;;;23.23;14.57;;;15.00;99.90;;;;;;5036438;28;20045;-93
2021/09/26 04:47:43;;;;;;;26.45;15.88;;;15.10;99.90;;;;;;5036880;28;20071;-92
2021/09/26 04:50:10;;;;;;;29.85;18.10;;;15.10;99.90;;;;;;5036607;28;20079;-92
2021/09/26 04:52:37;;;;;;;29.77;18.02;;;15.20;99.90;;;;;;5036390;28;20022;-92
2021/09/26 04:55:04;;;;;;;33.53;19.73;;;15.20;99.90;;;;;;5036225;28;20026;-92
2021/09/26 04:57:31;;;;;;;37.95;19.10;;;15.20;99.90;;;;;;5036584;28;20029;-94
2021/09/26 04:59:56;;;;;;;31.08;18.17;;;15.30;99.90;;;;;;5036397;28;20056;-94
2021/09/26 05:02:22;;;;;;;32.17;18.20;;;15.30;99.90;;;;;;5036212;28;20030;-94
2021/09/26 05:04:48;;;;;;;34.78;19.45;;;15.30;99.90;;;;;;5035789;28;20046;-93
2021/09/26 05:07:13;;;;;;;34.20;19.02;;;15.30;99.90;;;;;;5036305;28;20025;-92
2021/09/26 05:09:39;;;;;;;29.00;16.23;;;15.30;99.90;;;;;;5035954;28;20022;-93
2021/09/26 05:12:05;;;;;;;29.50;16.98;;;15.30;99.90;;;;;;5036219;28;20136;-93
2021/09/26 05:14:31;;;;;;;30.23;17.75;;;15.40;99.90;;;;;;5036029;28;20021;-93
2021/09/26 05:16:56;;;;;;;26.58;16.05;;;15.30;99.90;;;;;;5034772;28;20026;-92
2021/09/26 05:19:22;;;;;;;30.95;18.23;;;15.40;99.90;;;;;;5035396;28;20064;-93
2021/09/26 05:21:48;;;;;;;27.27;16.77;;;15.40;99.90;;;;;;5035582;28;20045;-91
2021/09/26 05:24:13;;;;;;;29.58;18.23;;;15.40;99.90;;;;;;5035505;28;20033;-92
2021/09/26 05:26:39;;;;;;;27.92;15.48;;;15.40;99.90;;;;;;5035838;28;20028;-93
2021/09/26 05:29:06;;;;;;;23.83;15.25;;;15.40;99.90;;;;;;5036736;28;20120;-94
2021/09/26 05:31:33;;;;;;;21.55;13.77;;;15.40;99.90;;;;;;5036703;28;20036;-92
2021/09/26 05:34:00;;;;;;;24.00;14.02;;;15.40;99.90;;;;;;5035430;28;20030;-92
2021/09/26 05:36:26;;;;;;;15.63;9.55;;;15.40;99.90;;;;;;5034910;28;20095;-94
2021/09/26 05:38:52;;;;;;;17.05;10.93;;;15.40;99.90;;;;;;5035594;28;20060;-93
2021/09/26 05:41:17;;;;;;;19.08;11.48;;;15.40;99.90;;;;;;5036569;28;20021;-93
2021/09/26 05:43:44;;;;;;;16.80;10.73;;;15.50;99.90;;;;;;5035126;28;20025;-93
2021/09/26 05:46:09;;;;;;;14.75;9.57;;;15.50;99.90;;;;;;5035355;28;20022;-92
2021/09/26 05:48:35;;;;;;;13.75;9.77;;;15.50;99.90;;;;;;5035501;28;20013;-94
2021/09/26 05:51:01;;;;;;;13.30;9.75;;;15.50;99.90;;;;;;5035661;28;20070;-92
2021/09/26 05:53:27;;;;;;;15.80;10.30;;;15.50;99.90;;;;;;5035703;28;20029;-92
2021/09/26 05:55:53;;;;;;;17.35;11.05;;;15.50;99.90;;;;;;5035679;28;20029;-92
2021/09/26 05:58:20;;;;;;;13.75;8.15;;;15.60;99.90;;;;;;5035362;28;20494;-92
2021/09/26 06:00:46;;;;;;;13.13;8.85;;;15.50;99.90;;;;;;5035464;28;20480;-93
2021/09/26 06:03:13;;;;;;;14.38;9.75;;;15.60;99.90;;;;;;5035070;28;20128;-92
2021/09/26 06:05:41;;;;;;;13.48;9.30;;;15.60;99.90;;;;;;5035285;28;20072;-92
2021/09/26 06:08:07;;;;;;;12.70;8.95;;;15.60;99.90;;;;;;5034649;28;20055;-94
2021/09/26 06:10:33;;;;;;;16.27;8.68;;;15.60;99.90;;;;;;5027429;28;20020;-94
2021/09/26 06:12:59;;;;;;;14.02;9.48;;;15.60;99.90;;;;;;5021504;28;20029;-96
2021/09/26 06:15:25;;;;;;;13.68;9.07;;;15.60;99.90;;;;;;5046605;28;20017;-93
2021/09/26 06:17:51;;;;;;;14.80;9.38;;;15.60;99.90;;;;;;5028244;28;20022;-93
2021/09/26 06:20:17;;;;;;;13.40;8.45;;;15.60;99.90;;;;;;5043382;28;20018;-92
2021/09/26 06:22:43;;;;;;;12.60;9.18;;;15.60;99.90;;;;;;5028474;28;20033;-94
2021/09/26 06:25:10;;;;;;;12.80;8.73;;;15.60;99.90;;;;;;5034106;28;20094;-93
2021/09/26 06:27:36;;;;;;;13.20;8.63;;;15.60;99.90;;;;;;5039743;28;20026;-93
2021/09/26 06:30:03;;;;;;;14.40;8.73;;;15.60;99.90;;;;;;5025750;28;20093;-94
2021/09/26 06:32:31;;;;;;;13.50;8.82;;;15.60;99.90;;;;;;5021823;28;20495;-94
2021/09/26 06:34:58;;;;;;;16.27;9.55;;;15.60;99.90;;;;;;5024752;28;20030;-93
2021/09/26 06:37:24;;;;;;;18.60;10.05;;;15.60;99.90;;;;;;5022387;28;20100;-93
2021/09/26 06:39:50;;;;;;;18.15;10.57;;;15.60;99.90;;;;;;5023082;28;20482;-93
2021/09/26 06:42:16;;;;;;;15.55;9.82;;;15.60;99.90;;;;;;5040144;28;20105;-93
2021/09/26 06:44:45;;;;;;;16.88;10.70;;;15.60;99.90;;;;;;5021395;28;20088;-94
2021/09/26 06:47:11;;;;;;;21.10;10.95;;;15.60;99.90;;;;;;5038664;28;20044;-93
2021/09/26 06:49:36;;;;;;;22.17;10.57;;;15.60;99.90;;;;;;5047189;28;20606;-92
2021/09/26 06:52:02;;;;;;;17.40;10.77;;;15.60;99.90;;;;;;5046933;28;20434;-92
2021/09/26 06:54:28;;;;;;;18.45;11.13;;;15.60;99.90;;;;;;5047079;28;20462;-93
2021/09/26 06:56:54;;;;;;;20.73;11.90;;;15.60;99.90;;;;;;5046767;28;20112;-93
2021/09/26 06:59:19;;;;;;;19.88;11.07;;;15.60;99.90;;;;;;5047508;28;20025;-92
2021/09/26 07:01:45;;;;;;;18.65;11.75;;;15.70;99.90;;;;;;5047240;28;20026;-93
2021/09/26 07:04:11;;;;;;;23.08;11.15;;;15.70;99.90;;;;;;5047110;28;20065;-93
2021/09/26 07:06:36;;;;;;;17.45;10.48;;;15.70;99.90;;;;;;5047143;28;20563;-91
2021/09/26 07:09:03;;;;;;;21.35;12.15;;;15.70;99.90;;;;;;5047310;28;20045;-92
2021/09/26 07:11:28;;;;;;;21.23;12.13;;;15.80;99.90;;;;;;5044649;28;20113;-92
2021/09/26 07:13:54;;;;;;;18.10;11.43;;;15.80;99.90;;;;;;5013884;28;20065;-92
2021/09/26 07:16:22;;;;;;;22.60;13.38;;;15.80;99.90;;;;;;5014007;28;20080;-93
2021/09/26 07:18:48;;;;;;;19.58;12.18;;;15.80;99.90;;;;;;5013671;28;20029;-94
2021/09/26 07:21:15;;;;;;;20.33;12.25;;;15.90;99.90;;;;;;5013861;28;20102;-93
2021/09/26 07:23:42;;;;;;;20.50;12.50;;;15.90;99.90;;;;;;5017675;28;20070;-92
2021/09/26 07:26:11;;;;;;;19.23;11.75;;;15.90;99.90;;;;;;5023181;28;20032;-94
2021/09/26 07:28:37;;;;;;;19.48;12.00;;;15.90;99.90;;;;;;5021613;28;20113;-92
2021/09/26 07:31:03;;;;;;;17.50;12.32;;;15.90;99.90;;;;;;5024463;28;20068;-93
2021/09/26 07:33:28;;;;;;;21.42;13.27;;;15.90;99.90;;;;;;5020634;28;20026;-92
2021/09/26 07:35:54;;;;;;;18.75;12.93;;;15.90;99.90;;;;;;5016807;28;20075;-92
2021/09/26 07:38:20;;;;;;;17.52;11.63;;;15.90;99.90;;;;;;5026645;28;20033;-92
2021/09/26 07:40:46;;;;;;;19.63;11.80;;;15.80;99.90;;;;;;5022891;28;20037;-93
2021/09/26 07:43:12;;;;;;;18.80;12.10;;;15.90;99.90;;;;;;5019311;28;20030;-90
2021/09/26 07:45:38;;;;;;;15.02;10.38;;;15.90;99.90;;;;;;5032822;28;20032;-93
2021/09/26 07:48:04;;;;;;;19.95;11.43;;;15.90;99.90;;;;;;5021321;28;20018;-92
2021/09/26 07:50:31;;;;;;;20.73;11.38;;;15.90;99.90;;;;;;5028437;28;20037;-92
2021/09/26 07:52:57;;;;;;;17.35;10.55;;;15.90;99.90;;;;;;5015283;28;20113;-94
2021/09/26 07:55:23;;;;;;;16.90;11.13;;;15.80;99.90;;;;;;5021931;28;20037;-92
2021/09/26 07:57:49;;;;;;;14.95;10.95;;;15.80;99.90;;;;;;5019883;28;20042;-92
2021/09/26 08:00:15;;;;;;;16.15;10.38;;;15.80;99.90;;;;;;5015620;28;20491;-93
2021/09/26 08:02:42;;;;;;;16.25;11.77;;;15.70;99.90;;;;;;5021367;28;20070;-93
2021/09/26 08:05:08;;;;;;;20.73;13.25;;;15.70;99.90;;;;;;5037782;28;20042;-91
2021/09/26 08:07:34;;;;;;;17.65;11.20;;;15.70;99.90;;;;;;5020891;28;20033;-92
2021/09/26 08:10:01;;;;;;;19.10;12.38;;;15.60;99.90;;;;;;5017909;28;20026;-94
2021/09/26 08:12:27;;;;;;;15.68;11.32;;;15.60;99.90;;;;;;5016970;28;20653;-91
2021/09/26 08:14:52;;;;;;;17.50;11.73;;;15.60;99.90;;;;;;5019862;28;20113;-92
2021/09/26 08:17:19;;;;;;;18.80;13.18;;;15.70;99.90;;;;;;5025488;28;20033;-92
2021/09/26 08:19:44;;;;;;;19.20;11.98;;;15.70;99.90;;;;;;5021917;28;20049;-92
2021/09/26 08:22:10;;;;;;;16.85;10.98;;;15.80;99.90;;;;;;5021908;28;20446;-92
2021/09/26 08:24:37;;;;;;;19.17;11.80;;;15.80;99.90;;;;;;5018803;28;20092;-93
2021/09/26 08:27:03;;;;;;;17.63;11.30;;;15.80;99.90;;;;;;5026647;28;20057;-93
2021/09/26 08:29:29;;;;;;;19.60;11.25;;;15.70;99.90;;;;;;5023194;28;20096;-92
2021/09/26 08:31:56;;;;;;;15.35;10.43;;;15.60;99.90;;;;;;5020346;28;20017;-92
2021/09/26 08:34:22;;;;;;;19.38;11.77;;;15.60;99.90;;;;;;5023381;28;20033;-91
2021/09/26 08:36:49;;;;;;;19.70;11.55;;;15.50;99.90;;;;;;5039290;28;20373;-91
2021/09/26 08:44:16;;;;;;;23.20;11.32;;;15.60;99.90;;;;;;5138848;23;20069;-93
2021/09/26 08:46:41;;;;;;;18.50;11.50;;;15.60;99.90;;;;;;5001639;28;20396;-92
2021/09/26 08:49:09;;;;;;;21.77;12.10;;;15.70;99.90;;;;;;4995659;28;20041;-94
2021/09/26 08:51:35;;;;;;;18.45;11.52;;;15.70;99.90;;;;;;5011275;28;20478;-93
2021/09/26 08:54:00;;;;;;;16.40;10.68;;;15.70;99.90;;;;;;5011774;28;20026;-93
2021/09/26 08:56:26;;;;;;;17.33;11.60;;;15.70;99.90;;;;;;4999729;28;20445;-94
2021/09/26 08:58:53;;;;;;;20.25;12.10;;;15.70;99.90;;;;;;5005639;28;20494;-93
2021/09/26 09:01:18;;;;;;;17.13;11.25;;;15.70;99.90;;;;;;4983867;28;20034;-92
2021/09/26 09:03:47;;;;;;;19.98;11.40;;;15.80;99.90;;;;;;5002417;28;20117;-92
2021/09/26 09:06:15;;;;;;;16.75;10.50;;;15.80;99.90;;;;;;5003170;28;20029;-94
2021/09/26 09:08:41;;;;;;;17.38;10.23;;;15.90;99.90;;;;;;4987303;28;20034;-93
2021/09/26 09:11:08;;;;;;;17.70;11.65;;;15.90;99.90;;;;;;4998935;28;20037;-94
2021/09/26 09:13:40;;;;;;;21.30;11.63;;;16.00;99.90;;;;;;5021804;28;20036;-96
2021/09/26 09:16:15;;;;;;;18.42;10.85;;;16.00;99.90;;;;;;5000698;28;20593;-94
2021/09/26 09:18:50;;;;;;;19.48;11.60;;;16.00;99.90;;;;;;5015125;28;20030;-95
2021/09/26 09:21:28;;;;;;;20.25;10.55;;;16.00;99.90;;;;;;5017690;28;20026;-95
2021/09/26 09:24:30;;;;;;;19.13;10.10;;;16.10;99.90;;;;;;5020657;28;20091;-95
2021/09/26 09:26:56;;;;;;;19.17;11.57;;;16.20;99.90;;;;;;5020808;28;20026;-96
2021/09/26 09:29:41;;;;;;;19.08;10.25;;;16.40;99.90;;;;;;5016970;28;20080;-93
2021/09/26 09:32:17;;;;;;;14.48;9.43;;;16.60;99.90;;;;;;4999808;28;20030;-92
2021/09/26 09:34:43;;;;;;;15.35;8.98;;;16.70;99.90;;;;;;5015905;28;20045;-94
2021/09/26 09:37:24;;;;;;;13.23;8.60;;;16.90;99.90;;;;;;5015491;28;20026;-94
2021/09/26 09:40:10;;;;;;;17.48;10.15;;;17.10;99.90;;;;;;5005108;28;20030;-94
2021/09/26 09:42:42;;;;;;;12.77;8.73;;;17.20;99.90;;;;;;4988490;28;20547;-92
2021/09/26 09:45:25;;;;;;;12.57;8.05;;;17.10;99.90;;;;;;5011307;28;20097;-92
2021/09/26 09:48:02;;;;;;;12.20;7.35;;;17.10;99.90;;;;;;5005308;28;20022;-95
2021/09/26 09:50:43;;;;;;;12.05;7.53;;;17.10;99.90;;;;;;4996437;28;20021;-96
2021/09/26 09:53:18;;;;;;;13.32;7.90;;;17.00;99.90;;;;;;5008347;28;20109;-93
2021/09/26 09:55:44;;;;;;;17.05;8.68;;;16.90;99.90;;;;;;5015121;28;20058;-95
2021/09/26 09:58:16;;;;;;;13.07;7.60;;;16.90;99.90;;;;;;4990848;28;20038;-94
2021/09/26 10:00:53;;;;;;;12.85;8.07;;;16.90;99.90;;;;;;4993029;28;20479;-96
2021/09/26 10:03:50;;;;;;;13.07;8.82;;;17.00;99.90;;;;;;5011435;28;20038;-95
2021/09/26 10:14:29;;;;;;;14.65;8.02;;;17.40;99.90;;;;;;5036851;28;20028;-94
2021/09/26 10:17:01;;;;;;;15.40;8.73;;;17.80;99.90;;;;;;5031423;28;20045;-96
2021/09/26 10:19:31;;;;;;;13.00;7.88;;;18.00;99.90;;;;;;5036186;28;20018;-94
2021/09/26 10:22:00;;;;;;;14.95;9.32;;;18.20;99.90;;;;;;5032560;28;20065;-93
2021/09/26 10:32:27;;;;;;;12.88;8.23;;;18.30;99.90;;;;;;5014704;28;20091;-95
2021/09/26 10:34:57;;;;;;;12.13;7.55;;;18.50;99.90;;;;;;5010449;28;20034;-94
2021/09/26 10:37:24;;;;;;;13.20;7.78;;;18.70;99.90;;;;;;5003523;28;20479;-95
2021/09/26 10:39:51;;;;;;;12.82;7.82;;;19.00;99.90;;;;;;4995539;28;20038;-95
2021/09/26 10:42:24;;;;;;;13.02;7.55;;;19.20;99.20;;;;;;4995211;28;20022;-95
2021/09/26 10:44:59;;;;;;;12.60;7.38;;;19.40;98.40;;;;;;5011671;28;20035;-96
2021/09/26 10:47:29;;;;;;;10.00;6.00;;;19.40;97.20;;;;;;4990048;28;20086;-96
2021/09/26 10:50:02;;;;;;;9.32;6.68;;;19.40;96.90;;;;;;4986378;28;20410;-95
2021/09/26 10:52:34;;;;;;;11.07;7.00;;;19.50;96.30;;;;;;4987575;28;20069;-95
2021/09/26 10:57:52;;;;;;;10.45;6.05;;;19.90;95.20;;;;;;5144773;23;20045;-94
2021/09/26 11:00:44;;;;;;;9.52;6.07;;;20.00;93.50;;;;;;5018950;28;20038;-95
2021/09/26 11:03:15;;;;;;;12.25;8.02;;;20.20;93.20;;;;;;5012352;28;20057;-96
2021/09/26 11:05:52;;;;;;;9.73;5.90;;;20.50;92.30;;;;;;5020239;28;20037;-95
2021/09/26 11:08:23;;;;;;;11.68;6.97;;;20.50;91.20;;;;;;5018264;28;20058;-95
2021/09/26 11:11:10;;;;;;;12.73;7.07;;;20.40;90.80;;;;;;5019271;28;20026;-96
2021/09/26 11:13:46;;;;;;;13.15;6.68;;;20.40;90.80;;;;;;5019251;28;20018;-96
2021/09/26 11:16:20;;;;;;;8.85;6.47;;;20.40;90.60;;;;;;5002061;28;20458;-95
2021/09/26 11:19:12;;;;;;;10.15;6.40;;;20.40;90.80;;;;;;5001603;28;20026;-95
2021/09/26 11:21:42;;;;;;;8.02;5.85;;;20.90;90.80;;;;;;5002080;28;20476;-96
2021/09/26 11:24:33;;;;;;;9.02;5.60;;;21.10;90.10;;;;;;5004521;28;20034;-96
2021/09/26 11:27:22;;;;;;;9.40;4.78;;;21.40;89.80;;;;;;5103890;22;20099;-94
2021/09/26 11:29:50;;;;;;;7.85;5.03;;;21.60;89.00;;;;;;4984464;28;20038;-94
2021/09/26 11:32:21;;;;;;;9.05;5.32;;;21.90;88.00;;;;;;4986122;28;20034;-94
2021/09/26 11:34:58;;;;;;;8.07;5.53;;;22.20;85.00;;;;;;5015770;28;20018;-95
2021/09/26 11:37:40;;;;;;;8.82;5.72;;;22.00;83.10;;;;;;5014599;28;20042;-94
2021/09/26 11:40:09;;;;;;;8.20;4.95;;;22.00;83.10;;;;;;5000813;28;20127;-95
2021/09/26 11:42:38;;;;;;;7.00;4.57;;;22.20;82.70;;;;;;5001547;28;20034;-93
2021/09/26 11:45:08;;;;;;;6.43;4.57;;;22.40;82.10;;;;;;5001366;28;20072;-95
2021/09/26 11:47:33;;;;;;;9.43;5.32;;;22.70;81.40;;;;;;5000956;28;20026;-94
2021/09/26 11:50:13;;;;;;;8.15;4.88;;;22.80;79.60;;;;;;5000790;28;20030;-93
2021/09/26 11:52:44;;;;;;;8.23;4.55;;;22.90;78.70;;;;;;5008589;28;20080;-93
2021/09/26 11:55:10;;;;;;;;;;;22.90;78.60;;;;;;4997695;28;20030;-94
2021/09/26 11:57:36;;;;;;;9.05;4.20;;;23.00;78.10;;;;;;4997487;28;19988;-94
2021/09/26 12:00:03;;;;;;;6.00;3.50;;;23.10;78.10;;;;;;5010013;28;20046;-94
2021/09/26 12:02:33;;;;;;;5.90;3.30;;;23.40;78.00;;;;;;4995214;28;20033;-96
2021/09/26 12:05:00;;;;;;;7.38;3.90;;;23.70;77.30;;;;;;4985919;28;20052;-94
2021/09/26 12:07:29;;;;;;;6.43;4.15;;;24.00;76.60;;;;;;5011985;28;20417;-94
2021/09/26 12:09:55;;;;;;;7.32;4.55;;;24.30;75.50;;;;;;5004440;28;20061;-93
2021/09/26 12:12:26;;;;;;;5.78;3.88;;;24.40;74.70;;;;;;4993809;28;20019;-93
2021/09/26 12:15:08;;;;;;;9.25;4.13;;;24.60;74.60;;;;;;4995561;28;20026;-92
2021/09/26 12:17:38;;;;;;;7.35;4.03;;;24.70;73.00;;;;;;5013737;28;20034;-94
2021/09/26 12:20:09;;;;;;;6.88;3.90;;;24.80;73.10;;;;;;4999777;28;20033;-95
2021/09/26 12:22:35;;;;;;;6.35;4.00;;;24.90;73.00;;;;;;5014270;28;20049;-94
2021/09/26 12:25:35;;;;;;;4.30;3.35;;;25.00;72.50;;;;;;4998558;28;20046;-96
2021/09/26 12:28:09;;;;;;;4.72;3.60;;;24.80;72.30;;;;;;5002579;28;20025;-93
2021/09/26 12:33:40;;;;;;;6.18;4.10;;;24.20;72.70;;;;;;5130585;23;20041;-94
2021/09/26 12:36:10;;;;;;;8.85;4.40;;;23.90;73.70;;;;;;5032281;28;20022;-96
2021/09/26 12:38:53;;;;;;;8.43;4.13;;;23.90;74.30;;;;;;5010598;28;20045;-93
2021/09/26 12:44:45;;;;;;;5.28;3.40;;;23.70;74.40;;;;;;5983568;23;20119;-95
2021/09/26 12:47:20;;;;;;;6.80;3.90;;;23.70;75.10;;;;;;5020286;28;20067;-94
2021/09/26 12:49:48;;;;;;;5.72;3.70;;;23.70;75.00;;;;;;5018272;28;20028;-93
2021/09/26 12:52:21;;;;;;;7.88;4.60;;;23.80;75.20;;;;;;5019089;28;20033;-93
2021/09/26 12:54:55;;;;;;;12.82;3.85;;;23.70;75.00;;;;;;5020978;28;20377;-94
2021/09/26 12:57:24;;;;;;;4.80;3.42;;;23.50;75.80;;;;;;5018880;28;20021;-93
2021/09/26 12:59:52;;;;;;;4.53;3.17;;;23.50;76.20;;;;;;5019118;28;20069;-94
2021/09/26 13:02:20;;;;;;;6.93;3.70;;;23.60;75.60;;;;;;5019465;28;20021;-94
2021/09/26 13:05:03;;;;;;;4.82;3.55;;;23.60;74.90;;;;;;5019660;28;20046;-93
2021/09/26 13:07:31;;;;;;;5.10;3.40;;;23.50;74.90;;;;;;5019225;28;20104;-91
2021/09/26 13:10:06;;;;;;;7.22;3.92;;;23.40;75.30;;;;;;5019245;28;20026;-94
2021/09/26 13:12:31;;;;;;;5.13;3.25;;;23.40;75.60;;;;;;5019036;28;20053;-91
2021/09/26 13:15:03;;;;;;;4.70;3.10;;;23.50;75.70;;;;;;5019011;28;20049;-92
2021/09/26 13:17:29;;;;;;;4.30;2.70;;;23.80;75.70;;;;;;5019420;28;20064;-92